sensor_id;sensor_type;location;lat;lon;timestamp;temperature;humidity
16066;DHT22;8137;48.952;8.970;2024-01-30T00:01:46;-0.10;99.90
16066;DHT22;8137;48.952;8.970;2024-01-30T00:04:12;-0.10;99.90
16066;DHT22;8137;48.952;8.970;2024-01-30T00:06:37;-0.10;99.90
16066;DHT22;8137;48.952;8.970;2024-01-30T00:09:03;-0.10;99.90
16066;DHT22;8137;48.952;8.970;2024-01-30T00:11:30;-0.10;99.90
16066;DHT22;8137;48.952;8.970;2024-01-30T00:13:56;-0.20;99.90
16066;DHT22;8137;48.952;8.970;2024-01-30T00:16:23;-0.20;99.90
16066;DHT22;8137;48.952;8.970;2024-01-30T00:18:52;-0.20;99.90
16066;DHT22;8137;48.952;8.970;2024-01-30T00:21:19;-0.20;99.90
16066;DHT22;8137;48.952;8.970;2024-01-30T00:23:44;-0.30;99.90
16066;DHT22;8137;48.952;8.970;2024-01-30T00:26:10;-0.30;99.90
16066;DHT22;8137;48.952;8.970;2024-01-30T00:28:37;-0.30;99.90
16066;DHT22;8137;48.952;8.970;2024-01-30T00:31:03;-0.30;99.90
16066;DHT22;8137;48.952;8.970;2024-01-30T00:33:29;-0.30;99.90
16066;DHT22;8137;48.952;8.970;2024-01-30T00:35:55;-0.30;99.90
16066;DHT22;8137;48.952;8.970;2024-01-30T00:38:21;-0.30;99.90
16066;DHT22;8137;48.952;8.970;2024-01-30T00:40:47;-0.30;99.90
16066;DHT22;8137;48.952;8.970;2024-01-30T00:43:12;-0.30;99.90
16066;DHT22;8137;48.952;8.970;2024-01-30T00:45:38;-0.30;99.90
16066;DHT22;8137;48.952;8.970;2024-01-30T00:48:04;-0.30;99.90
16066;DHT22;8137;48.952;8.970;2024-01-30T00:50:29;-0.30;99.90
16066;DHT22;8137;48.952;8.970;2024-01-30T00:52:55;-0.30;99.90
16066;DHT22;8137;48.952;8.970;2024-01-30T00:55:21;-0.30;99.90
16066;DHT22;8137;48.952;8.970;2024-01-30T00:57:46;-0.40;99.90
16066;DHT22;8137;48.952;8.970;2024-01-30T01:00:13;-0.40;99.90
16066;DHT22;8137;48.952;8.970;2024-01-30T01:02:42;-0.40;99.90
16066;DHT22;8137;48.952;8.970;2024-01-30T01:05:08;-0.40;99.90
16066;DHT22;8137;48.952;8.970;2024-01-30T01:07:33;-0.50;99.90
16066;DHT22;8137;48.952;8.970;2024-01-30T01:09:59;-0.50;99.90
16066;DHT22;8137;48.952;8.970;2024-01-30T01:12:25;-0.50;99.90
16066;DHT22;8137;48.952;8.970;2024-01-30T01:14:50;-0.50;99.90
16066;DHT22;8137;48.952;8.970;2024-01-30T01:17:16;-0.60;99.90
16066;DHT22;8137;48.952;8.970;2024-01-30T01:19:41;-0.60;99.90
16066;DHT22;8137;48.952;8.970;2024-01-30T01:22:07;-0.60;99.90
16066;DHT22;8137;48.952;8.970;2024-01-30T01:24:33;-0.60;99.90
16066;DHT22;8137;48.952;8.970;2024-01-30T01:26:59;-0.70;99.90
16066;DHT22;8137;48.952;8.970;2024-01-30T01:29:25;-0.70;99.90
16066;DHT22;8137;48.952;8.970;2024-01-30T01:31:54;-0.70;99.90
16066;DHT22;8137;48.952;8.970;2024-01-30T01:34:21;-0.70;99.90
16066;DHT22;8137;48.952;8.970;2024-01-30T01:36:46;-0.60;99.90
16066;DHT22;8137;48.952;8.970;2024-01-30T01:39:12;-0.60;99.90
16066;DHT22;8137;48.952;8.970;2024-01-30T01:41:38;-0.70;99.90
16066;DHT22;8137;48.952;8.970;2024-01-30T01:44:03;-0.70;99.90
16066;DHT22;8137;48.952;8.970;2024-01-30T01:46:32;-0.80;99.90
16066;DHT22;8137;48.952;8.970;2024-01-30T01:48:58;-0.80;99.90
16066;DHT22;8137;48.952;8.970;2024-01-30T01:51:27;-0.80;99.90
16066;DHT22;8137;48.952;8.970;2024-01-30T01:53:54;-0.90;99.90
16066;DHT22;8137;48.952;8.970;2024-01-30T01:56:22;-0.90;99.90
16066;DHT22;8137;48.952;8.970;2024-01-30T01:58:50;-0.90;99.90
16066;DHT22;8137;48.952;8.970;2024-01-30T02:01:18;-0.90;99.90
16066;DHT22;8137;48.952;8.970;2024-01-30T02:03:46;-1.00;99.90
16066;DHT22;8137;48.952;8.970;2024-01-30T02:06:15;-1.00;99.90
16066;DHT22;8137;48.952;8.970;2024-01-30T02:08:41;-1.00;99.90
16066;DHT22;8137;48.952;8.970;2024-01-30T02:11:07;-1.00;99.90
16066;DHT22;8137;48.952;8.970;2024-01-30T02:13:34;-1.00;99.90
16066;DHT22;8137;48.952;8.970;2024-01-30T02:16:00;-1.00;99.90
16066;DHT22;8137;48.952;8.970;2024-01-30T02:18:26;-1.10;99.90
16066;DHT22;8137;48.952;8.970;2024-01-30T02:20:55;-1.10;99.90
16066;DHT22;8137;48.952;8.970;2024-01-30T02:23:23;-1.10;99.90
16066;DHT22;8137;48.952;8.970;2024-01-30T02:25:50;-1.10;99.90
16066;DHT22;8137;48.952;8.970;2024-01-30T02:28:18;-1.10;99.90
16066;DHT22;8137;48.952;8.970;2024-01-30T02:30:45;-1.00;99.90
16066;DHT22;8137;48.952;8.970;2024-01-30T02:33:11;-1.10;99.90
16066;DHT22;8137;48.952;8.970;2024-01-30T02:35:37;-1.10;99.90
16066;DHT22;8137;48.952;8.970;2024-01-30T02:38:03;-1.20;99.90
16066;DHT22;8137;48.952;8.970;2024-01-30T02:40:29;-1.20;99.90
16066;DHT22;8137;48.952;8.970;2024-01-30T02:42:56;-1.20;99.90
16066;DHT22;8137;48.952;8.970;2024-01-30T02:45:21;-1.20;99.90
16066;DHT22;8137;48.952;8.970;2024-01-30T02:47:47;-1.20;99.90
16066;DHT22;8137;48.952;8.970;2024-01-30T02:50:13;-1.30;99.90
16066;DHT22;8137;48.952;8.970;2024-01-30T02:52:40;-1.30;99.90
16066;DHT22;8137;48.952;8.970;2024-01-30T02:55:06;-1.20;99.90
16066;DHT22;8137;48.952;8.970;2024-01-30T02:57:32;-1.30;99.90
16066;DHT22;8137;48.952;8.970;2024-01-30T02:59:57;-1.30;99.90
16066;DHT22;8137;48.952;8.970;2024-01-30T03:02:23;-1.40;99.90
16066;DHT22;8137;48.952;8.970;2024-01-30T03:04:48;-1.40;99.90
16066;DHT22;8137;48.952;8.970;2024-01-30T03:07:14;-1.40;99.90
16066;DHT22;8137;48.952;8.970;2024-01-30T03:09:41;-1.40;99.90
16066;DHT22;8137;48.952;8.970;2024-01-30T03:12:08;-1.40;99.90
16066;DHT22;8137;48.952;8.970;2024-01-30T03:14:33;-1.40;99.90
16066;DHT22;8137;48.952;8.970;2024-01-30T03:16:59;-1.40;99.90
16066;DHT22;8137;48.952;8.970;2024-01-30T03:19:25;-1.40;99.90
16066;DHT22;8137;48.952;8.970;2024-01-30T03:21:50;-1.40;99.90
16066;DHT22;8137;48.952;8.970;2024-01-30T03:24:16;-1.30;99.90
16066;DHT22;8137;48.952;8.970;2024-01-30T03:26:43;-1.40;99.90
16066;DHT22;8137;48.952;8.970;2024-01-30T03:29:08;-1.40;99.90
16066;DHT22;8137;48.952;8.970;2024-01-30T03:31:34;-1.40;99.90
16066;DHT22;8137;48.952;8.970;2024-01-30T03:34:01;-1.40;99.90
16066;DHT22;8137;48.952;8.970;2024-01-30T03:36:27;-1.40;99.90
16066;DHT22;8137;48.952;8.970;2024-01-30T03:38:53;-1.40;99.90
16066;DHT22;8137;48.952;8.970;2024-01-30T03:41:18;-1.40;99.90
16066;DHT22;8137;48.952;8.970;2024-01-30T03:43:44;-1.40;99.90
16066;DHT22;8137;48.952;8.970;2024-01-30T03:46:11;-1.50;99.90
16066;DHT22;8137;48.952;8.970;2024-01-30T03:48:37;-1.40;99.90
16066;DHT22;8137;48.952;8.970;2024-01-30T03:51:04;-1.50;99.90
16066;DHT22;8137;48.952;8.970;2024-01-30T03:53:30;-1.50;99.90
16066;DHT22;8137;48.952;8.970;2024-01-30T03:55:55;-1.60;99.90
16066;DHT22;8137;48.952;8.970;2024-01-30T03:58:21;-1.60;99.90
16066;DHT22;8137;48.952;8.970;2024-01-30T04:00:47;-1.60;99.90
16066;DHT22;8137;48.952;8.970;2024-01-30T04:03:14;-1.60;99.90
16066;DHT22;8137;48.952;8.970;2024-01-30T04:05:40;-1.60;99.90
16066;DHT22;8137;48.952;8.970;2024-01-30T04:08:05;-1.60;99.90
16066;DHT22;8137;48.952;8.970;2024-01-30T04:10:31;-1.70;99.90
16066;DHT22;8137;48.952;8.970;2024-01-30T04:12:57;-1.60;99.90
16066;DHT22;8137;48.952;8.970;2024-01-30T04:15:22;-1.70;99.90
16066;DHT22;8137;48.952;8.970;2024-01-30T04:17:48;-1.70;99.90
16066;DHT22;8137;48.952;8.970;2024-01-30T04:20:17;-1.60;99.90
16066;DHT22;8137;48.952;8.970;2024-01-30T04:22:46;-1.60;99.90
16066;DHT22;8137;48.952;8.970;2024-01-30T04:25:13;-1.60;99.90
16066;DHT22;8137;48.952;8.970;2024-01-30T04:27:39;-1.70;99.90
16066;DHT22;8137;48.952;8.970;2024-01-30T04:30:05;-1.70;99.90
16066;DHT22;8137;48.952;8.970;2024-01-30T04:32:31;-1.70;99.90
16066;DHT22;8137;48.952;8.970;2024-01-30T04:34:57;-1.80;99.90
16066;DHT22;8137;48.952;8.970;2024-01-30T04:37:23;-1.70;99.90
16066;DHT22;8137;48.952;8.970;2024-01-30T04:39:49;-1.70;99.90
16066;DHT22;8137;48.952;8.970;2024-01-30T04:42:14;-1.70;99.90
16066;DHT22;8137;48.952;8.970;2024-01-30T04:44:40;-1.80;99.90
16066;DHT22;8137;48.952;8.970;2024-01-30T04:47:05;-1.80;99.90
16066;DHT22;8137;48.952;8.970;2024-01-30T04:49:34;-1.80;99.90
16066;DHT22;8137;48.952;8.970;2024-01-30T04:52:00;-1.80;99.90
16066;DHT22;8137;48.952;8.970;2024-01-30T04:54:26;-1.80;99.90
16066;DHT22;8137;48.952;8.970;2024-01-30T04:56:51;-1.80;99.90
16066;DHT22;8137;48.952;8.970;2024-01-30T04:59:17;-1.80;99.90
16066;DHT22;8137;48.952;8.970;2024-01-30T05:01:43;-1.80;99.90
16066;DHT22;8137;48.952;8.970;2024-01-30T05:04:09;-1.80;99.90
16066;DHT22;8137;48.952;8.970;2024-01-30T05:06:34;-1.80;99.90
16066;DHT22;8137;48.952;8.970;2024-01-30T05:09:00;-1.80;99.90
16066;DHT22;8137;48.952;8.970;2024-01-30T05:11:26;-1.80;99.90
16066;DHT22;8137;48.952;8.970;2024-01-30T05:13:51;-1.80;99.90
16066;DHT22;8137;48.952;8.970;2024-01-30T05:16:17;-1.80;99.90
16066;DHT22;8137;48.952;8.970;2024-01-30T05:18:43;-1.80;99.90
16066;DHT22;8137;48.952;8.970;2024-01-30T05:21:28;-1.70;99.90
16066;DHT22;8137;48.952;8.970;2024-01-30T05:23:56;-1.80;99.90
16066;DHT22;8137;48.952;8.970;2024-01-30T05:26:36;-1.80;99.90
16066;DHT22;8137;48.952;8.970;2024-01-30T05:29:06;-1.80;99.90
16066;DHT22;8137;48.952;8.970;2024-01-30T05:31:39;-1.80;99.90
16066;DHT22;8137;48.952;8.970;2024-01-30T05:34:07;-1.80;99.90
16066;DHT22;8137;48.952;8.970;2024-01-30T05:36:34;-1.90;99.90
16066;DHT22;8137;48.952;8.970;2024-01-30T05:39:00;-1.90;99.90
16066;DHT22;8137;48.952;8.970;2024-01-30T05:41:26;-1.90;99.90
16066;DHT22;8137;48.952;8.970;2024-01-30T05:43:51;-1.90;99.90
16066;DHT22;8137;48.952;8.970;2024-01-30T05:46:17;-1.90;99.90
16066;DHT22;8137;48.952;8.970;2024-01-30T05:48:43;-1.90;99.90
16066;DHT22;8137;48.952;8.970;2024-01-30T05:51:08;-1.90;99.90
16066;DHT22;8137;48.952;8.970;2024-01-30T05:53:34;-1.90;99.90
16066;DHT22;8137;48.952;8.970;2024-01-30T05:56:04;-1.80;99.90
16066;DHT22;8137;48.952;8.970;2024-01-30T05:58:29;-1.80;99.90
16066;DHT22;8137;48.952;8.970;2024-01-30T06:00:56;-1.80;99.90
16066;DHT22;8137;48.952;8.970;2024-01-30T06:03:22;-1.80;99.90
16066;DHT22;8137;48.952;8.970;2024-01-30T06:05:48;-1.80;99.90
16066;DHT22;8137;48.952;8.970;2024-01-30T06:08:14;-1.80;99.90
16066;DHT22;8137;48.952;8.970;2024-01-30T06:10:39;-1.80;99.90
16066;DHT22;8137;48.952;8.970;2024-01-30T06:13:05;-1.80;99.90
16066;DHT22;8137;48.952;8.970;2024-01-30T06:15:31;-1.80;99.90
16066;DHT22;8137;48.952;8.970;2024-01-30T06:17:58;-1.90;99.90
16066;DHT22;8137;48.952;8.970;2024-01-30T06:20:24;-1.90;99.90
16066;DHT22;8137;48.952;8.970;2024-01-30T06:22:49;-1.90;99.90
16066;DHT22;8137;48.952;8.970;2024-01-30T06:25:15;-1.90;99.90
16066;DHT22;8137;48.952;8.970;2024-01-30T06:27:42;-1.90;99.90
16066;DHT22;8137;48.952;8.970;2024-01-30T06:30:08;-1.90;99.90
16066;DHT22;8137;48.952;8.970;2024-01-30T06:32:35;-2.00;99.90
16066;DHT22;8137;48.952;8.970;2024-01-30T06:35:01;-2.00;99.90
16066;DHT22;8137;48.952;8.970;2024-01-30T06:37:27;-2.00;99.90
16066;DHT22;8137;48.952;8.970;2024-01-30T06:39:53;-2.00;99.90
16066;DHT22;8137;48.952;8.970;2024-01-30T06:42:19;-2.00;99.90
16066;DHT22;8137;48.952;8.970;2024-01-30T06:44:44;-2.00;99.90
16066;DHT22;8137;48.952;8.970;2024-01-30T06:47:10;-2.00;99.90
16066;DHT22;8137;48.952;8.970;2024-01-30T06:49:36;-2.00;99.90
16066;DHT22;8137;48.952;8.970;2024-01-30T06:52:07;-2.00;99.90
16066;DHT22;8137;48.952;8.970;2024-01-30T06:54:33;-2.00;99.90
16066;DHT22;8137;48.952;8.970;2024-01-30T06:56:59;-1.90;99.90
16066;DHT22;8137;48.952;8.970;2024-01-30T06:59:25;-1.90;99.90
16066;DHT22;8137;48.952;8.970;2024-01-30T07:01:51;-1.90;99.90
16066;DHT22;8137;48.952;8.970;2024-01-30T07:04:17;-1.90;99.90
16066;DHT22;8137;48.952;8.970;2024-01-30T07:06:43;-1.90;99.90
16066;DHT22;8137;48.952;8.970;2024-01-30T07:09:09;-1.90;99.90
16066;DHT22;8137;48.952;8.970;2024-01-30T07:11:35;-1.90;99.90
16066;DHT22;8137;48.952;8.970;2024-01-30T07:14:00;-1.80;99.90
16066;DHT22;8137;48.952;8.970;2024-01-30T07:16:29;-1.80;99.90
16066;DHT22;8137;48.952;8.970;2024-01-30T07:18:54;-1.70;99.90
16066;DHT22;8137;48.952;8.970;2024-01-30T07:21:21;-1.70;99.90
16066;DHT22;8137;48.952;8.970;2024-01-30T07:23:50;-1.70;99.90
16066;DHT22;8137;48.952;8.970;2024-01-30T07:26:16;-1.70;99.90
16066;DHT22;8137;48.952;8.970;2024-01-30T07:28:41;-1.60;99.90
16066;DHT22;8137;48.952;8.970;2024-01-30T07:31:08;-1.50;99.90
16066;DHT22;8137;48.952;8.970;2024-01-30T07:33:33;-1.50;99.90
16066;DHT22;8137;48.952;8.970;2024-01-30T07:35:59;-1.40;99.90
16066;DHT22;8137;48.952;8.970;2024-01-30T07:38:25;-1.40;99.90
16066;DHT22;8137;48.952;8.970;2024-01-30T07:40:50;-1.30;99.90
16066;DHT22;8137;48.952;8.970;2024-01-30T07:43:16;-1.20;99.90
16066;DHT22;8137;48.952;8.970;2024-01-30T07:45:42;-1.20;99.90
16066;DHT22;8137;48.952;8.970;2024-01-30T07:48:07;-1.10;99.90
16066;DHT22;8137;48.952;8.970;2024-01-30T07:50:33;-1.00;99.90
16066;DHT22;8137;48.952;8.970;2024-01-30T07:53:00;-1.00;99.90
16066;DHT22;8137;48.952;8.970;2024-01-30T07:55:26;-0.90;99.90
16066;DHT22;8137;48.952;8.970;2024-01-30T07:57:56;-0.80;99.90
16066;DHT22;8137;48.952;8.970;2024-01-30T08:00:22;-0.70;99.90
16066;DHT22;8137;48.952;8.970;2024-01-30T08:02:48;-0.60;99.90
16066;DHT22;8137;48.952;8.970;2024-01-30T08:05:14;-0.60;99.90
16066;DHT22;8137;48.952;8.970;2024-01-30T08:07:41;-0.50;99.90
16066;DHT22;8137;48.952;8.970;2024-01-30T08:10:11;-0.40;99.90
16066;DHT22;8137;48.952;8.970;2024-01-30T08:12:37;-0.30;99.90
16066;DHT22;8137;48.952;8.970;2024-01-30T08:15:03;-0.20;99.90
16066;DHT22;8137;48.952;8.970;2024-01-30T08:17:29;-0.10;99.90
16066;DHT22;8137;48.952;8.970;2024-01-30T08:19:54;0.00;99.90
16066;DHT22;8137;48.952;8.970;2024-01-30T08:22:20;0.10;99.90
16066;DHT22;8137;48.952;8.970;2024-01-30T08:24:45;0.20;99.90
16066;DHT22;8137;48.952;8.970;2024-01-30T08:27:11;0.30;99.90
16066;DHT22;8137;48.952;8.970;2024-01-30T08:29:37;0.40;99.90
16066;DHT22;8137;48.952;8.970;2024-01-30T08:32:05;0.50;99.90
16066;DHT22;8137;48.952;8.970;2024-01-30T08:34:31;0.60;99.90
16066;DHT22;8137;48.952;8.970;2024-01-30T08:36:56;0.60;99.90
16066;DHT22;8137;48.952;8.970;2024-01-30T08:39:22;0.70;99.90
16066;DHT22;8137;48.952;8.970;2024-01-30T08:41:48;0.80;99.90
16066;DHT22;8137;48.952;8.970;2024-01-30T08:44:13;0.90;99.90
16066;DHT22;8137;48.952;8.970;2024-01-30T08:46:39;1.00;99.90
16066;DHT22;8137;48.952;8.970;2024-01-30T08:49:04;1.20;99.90
16066;DHT22;8137;48.952;8.970;2024-01-30T08:51:30;1.30;99.90
16066;DHT22;8137;48.952;8.970;2024-01-30T08:53:56;1.50;99.90
16066;DHT22;8137;48.952;8.970;2024-01-30T08:56:22;1.60;99.90
16066;DHT22;8137;48.952;8.970;2024-01-30T08:58:47;1.80;99.90
16066;DHT22;8137;48.952;8.970;2024-01-30T09:01:14;1.90;99.90
16066;DHT22;8137;48.952;8.970;2024-01-30T09:03:39;2.10;99.90
16066;DHT22;8137;48.952;8.970;2024-01-30T09:06:10;2.30;99.90
16066;DHT22;8137;48.952;8.970;2024-01-30T09:08:35;2.40;99.90
16066;DHT22;8137;48.952;8.970;2024-01-30T09:11:02;2.50;99.90
16066;DHT22;8137;48.952;8.970;2024-01-30T09:13:33;2.60;99.90
16066;DHT22;8137;48.952;8.970;2024-01-30T09:15:59;2.80;99.90
16066;DHT22;8137;48.952;8.970;2024-01-30T09:18:24;3.00;99.90
16066;DHT22;8137;48.952;8.970;2024-01-30T09:20:50;3.40;99.90
16066;DHT22;8137;48.952;8.970;2024-01-30T09:23:16;3.80;99.90
16066;DHT22;8137;48.952;8.970;2024-01-30T09:25:44;4.50;99.90
16066;DHT22;8137;48.952;8.970;2024-01-30T09:28:09;5.00;99.90
16066;DHT22;8137;48.952;8.970;2024-01-30T09:30:35;5.30;99.90
16066;DHT22;8137;48.952;8.970;2024-01-30T09:33:01;5.60;99.90
16066;DHT22;8137;48.952;8.970;2024-01-30T09:35:26;5.60;99.90
16066;DHT22;8137;48.952;8.970;2024-01-30T09:37:52;5.40;99.90
16066;DHT22;8137;48.952;8.970;2024-01-30T09:40:18;5.40;99.90
16066;DHT22;8137;48.952;8.970;2024-01-30T09:42:47;5.30;99.90
16066;DHT22;8137;48.952;8.970;2024-01-30T09:45:26;5.30;99.90
16066;DHT22;8137;48.952;8.970;2024-01-30T09:47:52;5.30;99.90
16066;DHT22;8137;48.952;8.970;2024-01-30T09:50:19;5.30;99.90
16066;DHT22;8137;48.952;8.970;2024-01-30T09:52:46;5.40;99.90
16066;DHT22;8137;48.952;8.970;2024-01-30T09:55:12;5.40;99.90
16066;DHT22;8137;48.952;8.970;2024-01-30T09:57:38;5.50;99.90
16066;DHT22;8137;48.952;8.970;2024-01-30T10:00:05;5.50;99.90
16066;DHT22;8137;48.952;8.970;2024-01-30T10:02:36;5.60;99.90
16066;DHT22;8137;48.952;8.970;2024-01-30T10:05:02;5.70;99.90
16066;DHT22;8137;48.952;8.970;2024-01-30T10:07:28;5.70;99.90
16066;DHT22;8137;48.952;8.970;2024-01-30T10:09:55;5.70;99.90
16066;DHT22;8137;48.952;8.970;2024-01-30T10:12:22;5.80;99.90
16066;DHT22;8137;48.952;8.970;2024-01-30T10:14:48;5.80;99.90
16066;DHT22;8137;48.952;8.970;2024-01-30T10:17:13;5.90;99.90
16066;DHT22;8137;48.952;8.970;2024-01-30T10:19:40;6.00;99.90
16066;DHT22;8137;48.952;8.970;2024-01-30T10:22:07;6.10;99.90
16066;DHT22;8137;48.952;8.970;2024-01-30T10:24:36;6.20;99.90
16066;DHT22;8137;48.952;8.970;2024-01-30T10:27:02;6.30;99.90
16066;DHT22;8137;48.952;8.970;2024-01-30T10:29:28;6.30;99.90
16066;DHT22;8137;48.952;8.970;2024-01-30T10:32:01;6.30;99.90
16066;DHT22;8137;48.952;8.970;2024-01-30T10:34:27;6.40;99.90
16066;DHT22;8137;48.952;8.970;2024-01-30T10:37:10;6.40;99.90
16066;DHT22;8137;48.952;8.970;2024-01-30T10:39:38;6.50;99.90
16066;DHT22;8137;48.952;8.970;2024-01-30T10:42:05;6.60;99.90
16066;DHT22;8137;48.952;8.970;2024-01-30T10:45:02;6.60;99.90
16066;DHT22;8137;48.952;8.970;2024-01-30T10:47:34;6.80;99.90
16066;DHT22;8137;48.952;8.970;2024-01-30T10:50:00;6.80;99.90
16066;DHT22;8137;48.952;8.970;2024-01-30T10:52:28;6.90;99.90
16066;DHT22;8137;48.952;8.970;2024-01-30T10:54:55;7.00;99.90
16066;DHT22;8137;48.952;8.970;2024-01-30T10:57:26;7.00;99.90
16066;DHT22;8137;48.952;8.970;2024-01-30T10:59:56;7.00;99.90
16066;DHT22;8137;48.952;8.970;2024-01-30T11:02:23;7.10;99.90
16066;DHT22;8137;48.952;8.970;2024-01-30T11:04:50;7.20;99.90
16066;DHT22;8137;48.952;8.970;2024-01-30T11:07:25;7.30;99.90
16066;DHT22;8137;48.952;8.970;2024-01-30T11:09:52;7.40;99.90
16066;DHT22;8137;48.952;8.970;2024-01-30T11:12:22;7.50;99.90
16066;DHT22;8137;48.952;8.970;2024-01-30T11:14:49;7.60;99.90
16066;DHT22;8137;48.952;8.970;2024-01-30T11:17:14;7.60;99.90
16066;DHT22;8137;48.952;8.970;2024-01-30T11:19:41;7.60;99.90
16066;DHT22;8137;48.952;8.970;2024-01-30T11:22:07;7.60;99.90
16066;DHT22;8137;48.952;8.970;2024-01-30T11:24:42;7.70;99.90
16066;DHT22;8137;48.952;8.970;2024-01-30T11:27:09;7.80;99.90
16066;DHT22;8137;48.952;8.970;2024-01-30T11:29:36;7.80;99.90
16066;DHT22;8137;48.952;8.970;2024-01-30T11:32:02;7.80;99.90
16066;DHT22;8137;48.952;8.970;2024-01-30T11:34:28;7.80;99.90
16066;DHT22;8137;48.952;8.970;2024-01-30T11:37:03;7.80;99.90
16066;DHT22;8137;48.952;8.970;2024-01-30T11:39:32;8.00;99.90
16066;DHT22;8137;48.952;8.970;2024-01-30T11:41:59;8.10;99.90
16066;DHT22;8137;48.952;8.970;2024-01-30T11:44:25;8.20;99.90
16066;DHT22;8137;48.952;8.970;2024-01-30T11:46:51;8.30;99.90
16066;DHT22;8137;48.952;8.970;2024-01-30T11:49:17;8.40;99.90
16066;DHT22;8137;48.952;8.970;2024-01-30T11:51:45;8.50;99.90
16066;DHT22;8137;48.952;8.970;2024-01-30T11:54:11;8.60;99.90
16066;DHT22;8137;48.952;8.970;2024-01-30T11:56:37;8.60;99.90
16066;DHT22;8137;48.952;8.970;2024-01-30T11:59:04;8.70;99.90
16066;DHT22;8137;48.952;8.970;2024-01-30T12:01:30;8.70;99.90
16066;DHT22;8137;48.952;8.970;2024-01-30T12:03:57;8.90;99.90
16066;DHT22;8137;48.952;8.970;2024-01-30T12:06:23;9.00;99.90
16066;DHT22;8137;48.952;8.970;2024-01-30T12:08:59;9.10;99.90
16066;DHT22;8137;48.952;8.970;2024-01-30T12:11:26;9.20;99.90
16066;DHT22;8137;48.952;8.970;2024-01-30T12:13:52;9.30;99.90
16066;DHT22;8137;48.952;8.970;2024-01-30T12:16:19;9.30;99.90
16066;DHT22;8137;48.952;8.970;2024-01-30T12:18:44;9.30;99.90
16066;DHT22;8137;48.952;8.970;2024-01-30T12:21:10;9.30;99.90
16066;DHT22;8137;48.952;8.970;2024-01-30T12:23:36;9.50;99.90
16066;DHT22;8137;48.952;8.970;2024-01-30T12:26:03;9.60;99.90
16066;DHT22;8137;48.952;8.970;2024-01-30T12:28:32;9.70;99.90
16066;DHT22;8137;48.952;8.970;2024-01-30T12:31:02;9.80;99.90
16066;DHT22;8137;48.952;8.970;2024-01-30T12:33:29;9.90;99.90
16066;DHT22;8137;48.952;8.970;2024-01-30T12:36:01;10.10;99.90
16066;DHT22;8137;48.952;8.970;2024-01-30T12:38:27;10.10;99.90
16066;DHT22;8137;48.952;8.970;2024-01-30T12:40:56;10.20;99.90
16066;DHT22;8137;48.952;8.970;2024-01-30T12:43:22;10.20;99.90
16066;DHT22;8137;48.952;8.970;2024-01-30T12:45:49;10.30;99.90
16066;DHT22;8137;48.952;8.970;2024-01-30T12:48:15;10.10;99.90
16066;DHT22;8137;48.952;8.970;2024-01-30T12:50:41;10.10;99.90
16066;DHT22;8137;48.952;8.970;2024-01-30T12:53:07;10.10;99.90
16066;DHT22;8137;48.952;8.970;2024-01-30T12:55:34;10.10;99.90
16066;DHT22;8137;48.952;8.970;2024-01-30T12:58:00;10.10;99.90
16066;DHT22;8137;48.952;8.970;2024-01-30T13:00:25;10.40;99.90
16066;DHT22;8137;48.952;8.970;2024-01-30T13:02:51;10.60;99.90
16066;DHT22;8137;48.952;8.970;2024-01-30T13:05:17;10.90;99.90
16066;DHT22;8137;48.952;8.970;2024-01-30T13:07:43;11.00;99.90
16066;DHT22;8137;48.952;8.970;2024-01-30T13:10:09;11.10;99.90
16066;DHT22;8137;48.952;8.970;2024-01-30T13:12:34;11.30;99.90
16066;DHT22;8137;48.952;8.970;2024-01-30T13:15:01;11.30;99.90
16066;DHT22;8137;48.952;8.970;2024-01-30T13:17:27;11.50;99.90
16066;DHT22;8137;48.952;8.970;2024-01-30T13:19:53;11.60;99.90
16066;DHT22;8137;48.952;8.970;2024-01-30T13:22:19;11.70;99.90
16066;DHT22;8137;48.952;8.970;2024-01-30T13:24:47;11.70;99.90
16066;DHT22;8137;48.952;8.970;2024-01-30T13:27:13;11.70;99.90
16066;DHT22;8137;48.952;8.970;2024-01-30T13:29:39;11.70;99.90
16066;DHT22;8137;48.952;8.970;2024-01-30T13:32:05;11.70;99.90
16066;DHT22;8137;48.952;8.970;2024-01-30T13:34:31;11.80;99.90
16066;DHT22;8137;48.952;8.970;2024-01-30T13:36:56;11.80;99.90
16066;DHT22;8137;48.952;8.970;2024-01-30T13:39:24;11.90;99.90
16066;DHT22;8137;48.952;8.970;2024-01-30T13:41:50;11.90;99.90
16066;DHT22;8137;48.952;8.970;2024-01-30T13:44:16;11.80;99.90
16066;DHT22;8137;48.952;8.970;2024-01-30T13:46:43;11.80;99.90
16066;DHT22;8137;48.952;8.970;2024-01-30T13:49:08;11.90;99.90
16066;DHT22;8137;48.952;8.970;2024-01-30T13:51:34;11.80;99.90
16066;DHT22;8137;48.952;8.970;2024-01-30T13:54:00;11.80;99.90
16066;DHT22;8137;48.952;8.970;2024-01-30T13:56:26;11.80;99.90
16066;DHT22;8137;48.952;8.970;2024-01-30T13:58:52;11.80;99.90
16066;DHT22;8137;48.952;8.970;2024-01-30T14:01:18;11.80;99.90
16066;DHT22;8137;48.952;8.970;2024-01-30T14:03:44;11.80;99.90
16066;DHT22;8137;48.952;8.970;2024-01-30T14:06:10;11.80;99.90
16066;DHT22;8137;48.952;8.970;2024-01-30T14:08:35;11.70;99.90
16066;DHT22;8137;48.952;8.970;2024-01-30T14:11:01;11.70;99.90
16066;DHT22;8137;48.952;8.970;2024-01-30T14:13:27;11.60;99.90
16066;DHT22;8137;48.952;8.970;2024-01-30T14:15:53;11.60;99.90
16066;DHT22;8137;48.952;8.970;2024-01-30T14:18:18;11.50;99.90
16066;DHT22;8137;48.952;8.970;2024-01-30T14:20:44;11.40;99.90
16066;DHT22;8137;48.952;8.970;2024-01-30T14:23:10;11.40;99.90
16066;DHT22;8137;48.952;8.970;2024-01-30T14:25:35;11.30;99.90
16066;DHT22;8137;48.952;8.970;2024-01-30T14:28:01;11.20;99.90
16066;DHT22;8137;48.952;8.970;2024-01-30T14:30:27;11.20;99.90
16066;DHT22;8137;48.952;8.970;2024-01-30T14:32:52;11.10;99.90
16066;DHT22;8137;48.952;8.970;2024-01-30T14:35:18;11.10;99.90
16066;DHT22;8137;48.952;8.970;2024-01-30T14:37:45;11.00;99.90
16066;DHT22;8137;48.952;8.970;2024-01-30T14:40:10;11.00;99.90
16066;DHT22;8137;48.952;8.970;2024-01-30T14:42:36;11.00;99.90
16066;DHT22;8137;48.952;8.970;2024-01-30T14:45:03;11.00;99.90
16066;DHT22;8137;48.952;8.970;2024-01-30T14:47:29;10.90;99.90
16066;DHT22;8137;48.952;8.970;2024-01-30T14:49:56;10.90;99.90
16066;DHT22;8137;48.952;8.970;2024-01-30T14:52:21;10.90;99.90
16066;DHT22;8137;48.952;8.970;2024-01-30T14:54:47;10.80;99.90
16066;DHT22;8137;48.952;8.970;2024-01-30T14:57:13;10.70;99.90
16066;DHT22;8137;48.952;8.970;2024-01-30T15:03:21;10.50;99.90
16066;DHT22;8137;48.952;8.970;2024-01-30T15:06:53;10.40;99.90
16066;DHT22;8137;48.952;8.970;2024-01-30T15:13:47;10.20;99.90
16066;DHT22;8137;48.952;8.970;2024-01-30T15:16:52;10.10;99.90
16066;DHT22;8137;48.952;8.970;2024-01-30T15:26:15;9.80;99.90
16066;DHT22;8137;48.952;8.970;2024-01-30T15:29:12;9.70;99.90
16066;DHT22;8137;48.952;8.970;2024-01-30T15:32:20;9.70;99.90
16066;DHT22;8137;48.952;8.970;2024-01-30T15:35:10;9.60;99.90
16066;DHT22;8137;48.952;8.970;2024-01-30T15:38:19;9.50;99.90
16066;DHT22;8137;48.952;8.970;2024-01-30T15:40:45;9.40;99.90
16066;DHT22;8137;48.952;8.970;2024-01-30T15:43:10;9.30;99.90
16066;DHT22;8137;48.952;8.970;2024-01-30T15:45:36;9.20;99.90
16066;DHT22;8137;48.952;8.970;2024-01-30T15:48:03;9.10;99.90
16066;DHT22;8137;48.952;8.970;2024-01-30T15:50:29;9.00;99.90
16066;DHT22;8137;48.952;8.970;2024-01-30T15:52:55;9.00;99.90
16066;DHT22;8137;48.952;8.970;2024-01-30T15:55:20;8.90;99.90
16066;DHT22;8137;48.952;8.970;2024-01-30T15:57:46;8.80;99.90
16066;DHT22;8137;48.952;8.970;2024-01-30T16:00:12;8.70;99.90
16066;DHT22;8137;48.952;8.970;2024-01-30T16:02:38;8.70;99.90
16066;DHT22;8137;48.952;8.970;2024-01-30T16:05:04;8.60;99.90